PDT,Max TemperatureF,Mean TemperatureF,Min TemperatureF,Max Dew PointF,MeanDew PointF,Min DewpointF,Max Humidity, Mean Humidity, Min Humidity, Max Sea Level PressureIn, Mean Sea Level PressureIn, Min Sea Level PressureIn, Max VisibilityMiles, Mean VisibilityMiles, Min VisibilityMiles, Max Wind SpeedMPH, Mean Wind SpeedMPH, Max Gust SpeedMPH,PrecipitationIn, CloudCover, Events, WindDirDegrees
2013-3-1,52,46,39,42,35,31,93,68,35,30.32,30.27,30.24,10,9,4,23,4,29,T,1,,298
2013-3-2,54,46,37,39,35,22,79,64,43,30.22,30.06,29.92,10,10,10,22,6,30,T,2,,109
2013-3-3,49,41,33,22,18,14,56,40,24,30.25,30.13,30.06,10,10,10,28,15,35,0.00,0,,308
2013-3-4,43,33,22,21,19,15,67,49,28,30.31,30.22,30.07,10,10,10,12,7,18,0.00,0,,275
2013-3-5,39,33,26,31,26,19,92,69,52,30.07,29.96,29.83,10,9,3,8,4,,T,7,Rain-Snow,300
2013-3-6,45,38,31,34,31,30,96,92,86,29.84,29.70,29.63,10,5,0,6,4,,0.19,8,Fog-Rain-Snow,297
2013-3-7,51,43,34,38,33,29,92,67,42,30.08,30.00,29.86,10,10,8,12,2,13,0.00,5,,332
2013-3-8,41,35,28,33,31,28,92,70,46,30.18,30.09,30.03,10,10,10,10,5,,0.00,1,,286
2013-3-9,50,37,24,29,26,22,78,54,29,30.38,30.31,30.20,10,10,10,10,5,,0.00,0,,296
2013-3-10,43,35,26,31,28,23,67,50,37,30.39,30.31,30.23,10,10,10,17,7,,T,3,,354
2013-3-11,52,45,38,29,25,22,59,46,32,30.37,30.29,30.19,10,10,10,16,6,23,0.00,2,,66
2013-3-12,55,46,36,38,34,28,79,60,39,30.17,30.06,29.99,10,10,10,12,5,20,T,2,,290
2013-3-13,55,49,42,46,38,35,87,62,49,30.14,30.09,30.04,10,10,10,10,3,,T,2,,58
2013-3-14,61,52,43,44,40,31,83,68,37,30.09,30.02,29.95,10,10,10,13,4,,0.00,1,,267
2013-3-15,57,47,36,38,35,33,43,57,35,30.15,30.09,30.05,10,10,9,13,5,,T,1,Rain,317
2013-3-16,58,46,33,36,30,19,79,55,30,30.04,29.88,29.74,10,10,10,29,11,37,T,2,,277
2013-3-17,46,37,28,31,23,16,93,58,29,30.06,29.95,29.84,10,8,2,26,11,33,T,3,Snow,306
2013-3-18,46,35,23,27,20,13,66,46,22,30.21,30.07,29.99,10,10,10,28,9,37,T,0,,318
2013-3-19,48,34,19,32,25,15,96,68,28,30.26,30.04,29.81,10,7,1,9,4,,T,5,Rain-Snow,275
2013-3-20,52,43,33,38,30,17,96,85,38,29.83,29.63,29.50,10,4,0,29,3,40,0.28,7,Fog-Rain-Snow,282
2013-3-21,43,33,22,28,22,18,67,52,33,30.09,30.02,29.87,10,10,6,15,6,23,T,5,Rain,330
2013-3-22,41,31,20,23,19,15,67,49,30,30.32,30.19,30.10,10,10,10,15,9,,0.00,1,,294
2013-3-23,43,30,16,20,18,16,67,48,29,30.39,30.33,30.25,10,10,10,9,6,,0.00,0,,193
2013-3-24,43,32,20,21,19,16,69,49,27,30.37,30.29,30.20,10,10,10,12,4,,0.00,0,,255
2013-3-25,50,35,19,24,21,19,69,49,28,30.21,30.11,30.01,10,10,10,9,4,,0.00,0,,294
2013-3-26,59,45,31,29,26,23,69,49,28,30.06,30.00,29.93,10,10,10,13,4,15,0.00,0,,325
2013-3-27,54,44,33,35,32,30,67,54,37,30.01,29.97,29.94,10,10,10,8,4,,0.00,4,,292
2013-3-28,62,50,38,37,34,32,79,58,36,30.09,30.05,30.01,10,10,10,15,5,17,0.00,1,,316
2013-3-29,66,53,40,35,33,31,73,51,28,30.21,30.15,30.10,10,10,10,15,6,17,0.00,2,,298
2013-3-30,62,49,36,37,33,31,76,49,29,30.30,30.20,30.10,10,10,10,12,6,,0.00,0,,274
2013-3-31,66,49,32,36,34,33,77,49,27,30.12,30.03,29.91,10,10,10,14,6,,0.00,0,,293